Williamsport, KY (41271)

11:35 AM EDT on September 17, 2014 (GMT -0400)
West Van Lear | Change Station
CLOSE
Current Station
Personal Weather Station
Location: West Van Lear, KY
Elevation: 610 ft
Nearby Weather Stations

Elev 610 ft 37.79 °N, 82.79 °W | Updated 5 minutes ago

Partly Cloudy
Partly Cloudy
61.5 °F
Feels Like 61.5 °F
N
1.1
Wind Variable Wind from SSE

Today
High -- | Low -- °F
--% Chance of Precip.
Yesterday
High -- | Low -- °F
Precip. -- in
7:14 AM 7:35 PM
Waning Crescent, 35% visible
Pressure 30.05 in
Visibility 7.0 miles
Clouds Overcast 400 ft
Dew Point 55 °F
Humidity 78%
Rainfall 0.00 in
Snow Depth Not available.
UV 2 out of 12
Pollen 5.60 out of 12
Air Quality Not available.
Flu Activity Not available.
METAR KSJS 171515Z AUTO 11003KT 7SM OVC004 14/13 A3005 RMK AO2 T01420133

More Conditions Fewer Conditions

Pressure 30.05 in
Visibility 7.0 miles
Clouds Overcast 400 ft
Dew Point 55 °F
Humidity 78%
Rainfall 0.00 in
Snow Depth Not available.
UV 2 out of 12
Pollen 5.60 out of 12
Air Quality Not available.
Flu Activity Not available.
METAR KSJS 171515Z AUTO 11003KT 7SM OVC004 14/13 A3005 RMK AO2 T01420133

More Conditions Fewer Conditions

10-Day Weather Forecast

Almanac

Astronomy

Sep. 17, 2014 Rise Set
Actual Time 7:14 AM EDT 7:35 PM EDT
Civil Twilight 6:48 AM EDT 8:01 PM EDT
Nautical Twilight 6:17 AM EDT 8:32 PM EDT
Astronomical Twilight 5:45 AM EDT 9:04 PM EDT
Moon 1:17 AM EDT 3:40 PM EDT
Length of Visible Light 13h 13m
Length of Day
12h 21m
Tomorrow will be 2m 24s shorter.
Waning Crescent, 35% of the Moon is Illuminated
Today
Waning Crescent
Sep 24
New
Oct 1
First Quarter
Oct 8
Full
Oct 15
Last Quarter

Today's Extremes

State Highs State Lows

Community

WunderPhotos

Upload Photos

1,754,068 photos uploaded!

WunderBlogs® & News

Nearby

Snow Depth

Station Depth Elevation
No new snow has been reported.

Earthquake Activity

City Distance Mag. Time & Date
No recent earthquake activity has been reported nearby.
Minimum magnitude displayed is 2.5.

Coastal Water Temperatures

Place Temperature
No Stations Reporting

Nearby Weather Stations